Time;durP1;ratioP1;P1;durP2;ratioP2;P2;SDS_P1;SDS_P2;PMS_P1;PMS_P2;Temp;Humidity;BMP_temperature;BMP_pressure;BME280_temperature;BME280_humidity;BME280_pressure;Samples;Min_cycle;Max_cycle;Signal;HPM_P1;HPM_P2
2023/01/12 00:01:06;;;;;;;;;3.50;3.50;;;;;8.91;83.12;100723.38;5041336;28;10249;-68
2023/01/12 00:03:33;;;;;;;;;1.25;1.25;;;;;8.94;82.85;100724.00;5041959;28;10133;-67
2023/01/12 00:06:10;;;;;;;;;4.75;2.25;;;;;8.97;82.93;100723.66;5026814;28;10193;-67
2023/01/12 00:08:37;;;;;;;;;3.50;3.00;;;;;8.94;83.03;100711.41;5038410;28;10135;-68
2023/01/12 00:11:03;;;;;;;;;4.75;3.00;;;;;8.91;82.66;100720.69;5034987;28;10219;-67
2023/01/12 00:13:31;;;;;;;;;1.50;1.00;;;;;9.04;83.13;100711.16;5033260;28;10208;-68
2023/01/12 00:18:51;;;;;;;;;5.25;1.75;;;;;9.08;82.61;100701.69;5023046;28;10077;-66
2023/01/12 00:21:17;;;;;;;;;1.75;1.75;;;;;9.08;82.63;100709.75;5037453;28;10157;-66
2023/01/12 00:23:44;;;;;;;;;2.50;1.00;;;;;9.07;82.37;100700.84;5038005;28;10253;-66
2023/01/12 00:26:10;;;;;;;;;3.00;1.50;;;;;9.05;83.08;100699.38;5035561;28;10233;-65
2023/01/12 00:28:37;;;;;;;;;3.50;2.00;;;;;9.07;82.67;100686.59;5044664;28;10145;-65
2023/01/12 00:31:09;;;;;;;;;3.25;3.00;;;;;9.10;83.06;100694.28;5034855;28;10077;-67
2023/01/12 00:33:37;;;;;;;;;4.00;1.75;;;;;9.09;83.06;100690.75;5024865;28;10096;-66
2023/01/12 00:36:07;;;;;;;;;6.50;2.00;;;;;9.12;83.12;100682.31;5039051;28;10939;-66
2023/01/12 00:38:35;;;;;;;;;2.50;2.00;;;;;9.10;82.62;100679.00;5039993;28;10096;-67
2023/01/12 00:41:09;;;;;;;;;10.75;2.50;;;;;9.11;82.68;100690.56;5030786;28;10782;-67
2023/01/12 00:46:31;;;;;;;;;6.25;2.00;;;;;9.04;82.92;100669.00;5030593;28;10261;-66
2023/01/12 00:48:58;;;;;;;;;6.25;3.00;;;;;8.97;83.10;100669.94;5036824;28;10074;-67
2023/01/12 00:51:24;;;;;;;;;1.00;1.00;;;;;8.95;83.48;100662.06;5049637;28;10236;-65
2023/01/12 00:53:50;;;;;;;;;1.00;1.00;;;;;8.97;83.78;100654.66;5034763;28;10100;-68
2023/01/12 00:56:17;;;;;;;;;2.00;1.00;;;;;8.97;83.70;100661.91;5029367;28;10041;-68
2023/01/12 00:58:43;;;;;;;;;3.00;1.50;;;;;8.98;84.18;100658.19;5039603;28;10205;-67
2023/01/12 01:01:10;;;;;;;;;6.75;2.00;;;;;9.00;83.95;100650.78;5035198;28;10044;-65
2023/01/12 01:03:36;;;;;;;;;6.50;4.00;;;;;8.97;84.06;100652.00;5031538;28;10038;-65
2023/01/12 01:06:06;;;;;;;;;2.50;1.75;;;;;9.00;84.38;100645.41;5031808;28;10144;-67
2023/01/12 01:08:36;;;;;;;;;6.75;4.50;;;;;8.97;84.83;100635.88;5025010;28;10063;-68
2023/01/12 01:11:05;;;;;;;;;6.25;3.75;;;;;8.87;85.26;100643.38;5037732;28;10183;-66
2023/01/12 01:13:31;;;;;;;;;5.00;2.00;;;;;8.95;85.90;100639.75;5029556;28;10066;-68
2023/01/12 01:15:59;;;;;;;;;3.00;2.00;;;;;8.95;85.96;100637.91;5023594;28;10058;-66
2023/01/12 01:18:26;;;;;;;;;7.00;2.50;;;;;9.00;85.92;100629.31;5040825;28;10082;-67
2023/01/12 01:20:53;;;;;;;;;7.75;5.25;;;;;9.06;86.13;100623.16;5025015;28;10857;-68
2023/01/12 01:23:21;;;;;;;;;5.75;3.75;;;;;9.10;85.67;100624.44;5030772;28;10215;-67
2023/01/12 01:25:48;;;;;;;;;5.75;4.75;;;;;9.06;85.93;100617.81;5036221;28;10049;-68
2023/01/12 01:28:16;;;;;;;;;3.50;2.00;;;;;9.05;86.09;100614.28;5032546;28;10191;-66
2023/01/12 01:30:44;;;;;;;;;6.00;4.25;;;;;9.08;85.99;100610.41;5033923;28;10220;-67
2023/01/12 01:33:11;;;;;;;;;5.00;4.25;;;;;9.04;86.91;100604.56;5044354;28;10197;-68
2023/01/12 01:35:38;;;;;;;;;4.00;2.00;;;;;9.07;86.61;100603.34;5033635;28;10587;-67
2023/01/12 01:38:04;;;;;;;;;7.75;5.75;;;;;8.99;86.41;100596.25;5025254;28;10093;-66
2023/01/12 01:40:31;;;;;;;;;1.50;1.50;;;;;9.05;87.20;100597.34;5032598;28;11183;-67
2023/01/12 01:42:58;;;;;;;;;4.50;3.50;;;;;9.08;87.03;100595.13;5032150;28;10214;-68
2023/01/12 01:45:25;;;;;;;;;8.00;5.50;;;;;9.11;87.31;100593.88;5032065;28;10073;-68
2023/01/12 01:47:59;;;;;;;;;6.25;3.50;;;;;9.08;87.43;100584.38;5020178;28;10223;-68
2023/01/12 01:50:35;;;;;;;;;8.75;4.00;;;;;9.05;87.15;100584.75;5027918;28;10250;-67
2023/01/12 01:53:10;;;;;;;;;5.50;3.50;;;;;9.06;88.43;100585.59;5033104;28;10219;-66
2023/01/12 01:55:47;;;;;;;;;10.25;4.00;;;;;9.10;88.13;100576.94;5042672;28;10216;-67
2023/01/12 01:58:18;;;;;;;;;4.75;4.25;;;;;9.11;87.91;100561.66;5030839;28;10292;-66
2023/01/12 02:00:45;;;;;;;;;12.75;9.25;;;;;9.10;88.09;100557.31;5033253;28;10227;-68
2023/01/12 02:03:13;;;;;;;;;12.00;7.50;;;;;9.17;88.90;100574.34;5035495;28;11134;-67
2023/01/12 02:05:44;;;;;;;;;4.75;4.00;;;;;9.16;88.24;100565.47;5031416;28;10229;-67
2023/01/12 02:08:33;;;;;;;;;8.25;5.75;;;;;9.19;87.92;100561.53;5034069;28;10416;-67
2023/01/12 02:11:01;;;;;;;;;8.25;5.50;;;;;9.19;88.58;100550.78;5038914;28;10375;-68
2023/01/12 02:16:29;;;;;;;;;1.50;1.00;;;;;9.21;88.94;100526.44;5040832;28;10227;-68
2023/01/12 02:19:15;;;;;;;;;11.25;4.00;;;;;9.16;88.29;100518.97;5018423;28;10158;-66
2023/01/12 02:22:27;;;;;;;;;8.00;5.00;;;;;9.12;88.74;100509.66;5043106;28;10245;-66
2023/01/12 02:25:26;;;;;;;;;5.00;4.25;;;;;9.15;89.07;100511.91;5011882;28;10254;-66
2023/01/12 02:28:30;;;;;;;;;7.25;5.50;;;;;9.11;89.28;100505.28;5014797;28;10328;-67
2023/01/12 02:31:18;;;;;;;;;6.25;4.50;;;;;9.15;89.08;100495.81;5033644;28;10308;-66
2023/01/12 02:34:08;;;;;;;;;2.00;2.00;;;;;9.21;88.76;100496.91;5034678;28;10986;-66
2023/01/12 02:36:40;;;;;;;;;4.75;3.00;;;;;9.18;88.86;100484.69;5033634;28;11530;-67
2023/01/12 02:39:28;;;;;;;;;2.50;2.00;;;;;9.24;88.64;100485.78;5024197;28;10235;-66
2023/01/12 02:44:49;;;;;;;;;8.50;4.25;;;;;9.21;88.73;100468.19;5040186;28;10387;-66
2023/01/12 02:47:42;;;;;;;;;6.00;4.75;;;;;9.12;88.61;100467.50;5031980;28;10255;-68
2023/01/12 02:50:13;;;;;;;;;3.25;2.00;;;;;9.05;89.13;100450.50;5033041;28;10214;-65
2023/01/12 02:52:44;;;;;;;;;5.25;5.25;;;;;8.98;89.24;100454.16;5033663;28;10120;-66
2023/01/12 02:55:14;;;;;;;;;1.50;1.00;;;;;9.02;89.50;100450.88;5033379;28;10787;-66
2023/01/12 02:57:42;;;;;;;;;4.00;2.75;;;;;9.00;90.26;100447.59;5034911;28;10131;-65
2023/01/12 03:00:09;;;;;;;;;2.00;2.00;;;;;9.03;89.90;100443.66;5023991;28;10243;-65
2023/01/12 03:02:37;;;;;;;;;3.00;2.00;;;;;9.00;89.81;100449.44;5039487;28;10705;-67
2023/01/12 03:05:04;;;;;;;;;3.50;1.75;;;;;8.99;89.49;100448.59;5029354;28;11072;-66
2023/01/12 03:07:59;;;;;;;;;4.00;1.75;;;;;9.01;89.35;100416.19;5023596;28;10267;-67
2023/01/12 03:10:37;;;;;;;;;1.75;1.50;;;;;8.95;89.44;100427.69;5036801;28;11318;-68
2023/01/12 03:13:08;;;;;;;;;3.50;1.00;;;;;9.00;89.71;100423.41;5039957;28;10176;-66
2023/01/12 03:15:39;;;;;;;;;5.00;3.00;;;;;9.00;89.08;100417.22;5034831;28;10332;-67
2023/01/12 03:18:39;;;;;;;;;6.00;3.00;;;;;9.04;89.60;100405.91;5018872;28;10198;-67
2023/01/12 03:21:19;;;;;;;;;4.25;1.50;;;;;9.04;89.42;100372.84;5025660;28;10133;-67
2023/01/12 03:23:58;;;;;;;;;4.50;2.00;;;;;8.99;89.00;100361.84;5034022;28;10150;-68
2023/01/12 03:26:27;;;;;;;;;3.00;1.00;;;;;9.02;89.67;100348.88;5034045;28;10156;-67
2023/01/12 03:29:02;;;;;;;;;2.00;2.00;;;;;8.86;89.12;100350.00;5042285;28;10156;-67
2023/01/12 03:31:29;;;;;;;;;2.00;2.00;;;;;8.93;89.09;100342.00;5030057;28;10151;-68
2023/01/12 03:33:56;;;;;;;;;2.50;1.00;;;;;8.98;89.27;100341.41;5026723;28;10275;-68
2023/01/12 03:36:41;;;;;;;;;5.00;2.00;;;;;8.91;88.99;100312.69;5026891;28;10214;-67
2023/01/12 03:39:13;;;;;;;;;0.75;0.75;;;;;8.88;89.51;100301.50;5022347;28;10266;-68
2023/01/12 03:41:53;;;;;;;;;1.50;0.00;;;;;8.94;89.12;100273.03;5036997;28;10162;-68
2023/01/12 03:44:28;;;;;;;;;2.00;2.00;;;;;8.87;88.92;100267.63;5037831;28;10975;-67
2023/01/12 03:47:03;;;;;;;;;3.25;0.50;;;;;8.83;89.63;100260.97;5022290;28;10149;-67
2023/01/12 03:49:49;;;;;;;;;1.00;1.00;;;;;8.80;89.84;100245.31;5037753;28;10897;-68
2023/01/12 03:52:17;;;;;;;;;1.00;1.00;;;;;8.87;89.74;100230.03;5042457;28;10163;-68
2023/01/12 03:54:46;;;;;;;;;0.00;0.00;;;;;8.95;89.85;100205.72;5041651;28;10116;-67
2023/01/12 03:57:14;;;;;;;;;0.75;0.75;;;;;8.95;89.25;100207.56;5029816;28;10172;-68
2023/01/12 03:59:40;;;;;;;;;2.00;1.00;;;;;8.90;89.54;100189.38;5033198;28;10163;-68
2023/01/12 04:02:07;;;;;;;;;1.00;1.00;;;;;8.95;89.31;100196.84;5027544;28;10327;-66
2023/01/12 04:04:33;;;;;;;;;3.00;2.00;;;;;8.94;89.66;100187.97;5042853;28;10211;-68
2023/01/12 04:07:00;;;;;;;;;2.00;2.00;;;;;8.86;89.11;100183.59;5038347;28;10246;-68
2023/01/12 04:09:27;;;;;;;;;2.00;2.00;;;;;8.76;89.87;100169.72;5036375;28;11109;-67
2023/01/12 04:12:09;;;;;;;;;3.50;2.00;;;;;8.77;89.96;100155.28;5025843;28;10854;-69
2023/01/12 04:14:36;;;;;;;;;3.00;2.00;;;;;8.76;90.21;100161.66;5040283;28;10270;-67
2023/01/12 04:17:03;;;;;;;;;3.00;2.00;;;;;8.76;90.52;100145.56;5033277;28;10412;-68
2023/01/12 04:19:29;;;;;;;;;1.00;1.00;;;;;8.84;89.96;100141.91;5036348;28;10262;-69
2023/01/12 04:24:41;;;;;;;;;1.00;1.00;;;;;8.59;90.67;100123.63;5037261;28;10069;-68
2023/01/12 04:27:08;;;;;;;;;2.50;1.25;;;;;8.62;90.72;100133.09;5028682;28;10131;-68
2023/01/12 04:29:35;;;;;;;;;1.00;1.00;;;;;8.51;91.04;100123.78;5039505;28;11037;-68
2023/01/12 04:32:03;;;;;;;;;2.00;2.00;;;;;8.55;91.24;100118.84;5037419;28;10210;-68
2023/01/12 04:34:29;;;;;;;;;1.25;1.25;;;;;8.50;91.32;100140.88;5033053;28;10246;-66
2023/01/12 04:36:56;;;;;;;;;0.00;0.00;;;;;8.53;91.72;100121.72;5019999;28;10245;-67
2023/01/12 04:39:22;;;;;;;;;1.50;0.25;;;;;8.56;90.96;100115.97;5022915;28;10203;-67
2023/01/12 04:41:48;;;;;;;;;1.00;1.00;;;;;8.54;91.07;100111.81;5041625;28;10286;-67
2023/01/12 04:44:15;;;;;;;;;1.00;1.00;;;;;8.53;91.66;100110.16;5014590;28;10168;-66
2023/01/12 04:46:41;;;;;;;;;1.00;1.00;;;;;8.63;91.91;100121.38;5027266;28;10080;-66
2023/01/12 04:49:09;;;;;;;;;1.00;1.00;;;;;8.68;91.54;100124.28;5018168;28;10166;-66
2023/01/12 04:51:35;;;;;;;;;0.50;0.50;;;;;8.58;91.46;100121.13;5010189;28;10204;-66
2023/01/12 04:54:02;;;;;;;;;1.00;1.00;;;;;8.61;91.12;100115.38;5024545;28;9877;-69
2023/01/12 04:56:30;;;;;;;;;1.00;0.00;;;;;8.59;91.37;100117.44;5029680;28;10094;-66
2023/01/12 04:58:59;;;;;;;;;1.00;0.50;;;;;8.61;91.85;100116.19;5028070;28;10163;-66
2023/01/12 05:01:29;;;;;;;;;2.00;1.00;;;;;8.53;91.86;100135.13;5042631;28;10136;-67
2023/01/12 05:03:59;;;;;;;;;1.00;1.00;;;;;8.50;92.55;100107.88;5016323;28;10063;-66
2023/01/12 05:06:26;;;;;;;;;1.00;1.00;;;;;8.56;92.55;100112.47;5013553;28;9925;-66
2023/01/12 05:11:38;;;;;;;;;0.25;0.25;;;;;8.55;92.27;100111.63;5043140;28;10829;-67
2023/01/12 05:14:04;;;;;;;;;1.00;1.00;;;;;8.56;92.50;100113.28;5039167;28;10942;-66
2023/01/12 05:16:31;;;;;;;;;0.25;0.25;;;;;8.59;92.53;100112.06;5037917;28;10094;-67
2023/01/12 05:18:57;;;;;;;;;0.00;0.00;;;;;8.61;93.12;100123.41;5018638;28;10150;-66
2023/01/12 05:21:24;;;;;;;;;2.00;2.00;;;;;8.68;93.08;100128.81;5034603;28;10173;-67
2023/01/12 05:23:51;;;;;;;;;0.25;0.25;;;;;8.66;92.85;100115.59;5045289;28;10204;-66
2023/01/12 05:26:18;;;;;;;;;0.00;0.00;;;;;8.70;93.01;100108.78;5042448;28;10221;-66
2023/01/12 05:28:49;;;;;;;;;0.00;0.00;;;;;8.76;93.09;100118.75;5025921;28;11124;-68
2023/01/12 05:31:18;;;;;;;;;0.00;0.00;;;;;8.80;93.37;100129.91;5041107;28;10256;-69
2023/01/12 05:33:45;;;;;;;;;0.00;0.00;;;;;8.81;93.20;100132.38;5023950;28;10134;-69
2023/01/12 05:36:13;;;;;;;;;1.00;1.00;;;;;8.83;93.14;100124.97;5024895;28;9991;-68
2023/01/12 05:38:41;;;;;;;;;1.00;0.25;;;;;8.80;93.33;100125.34;5042012;28;10174;-68
2023/01/12 05:41:09;;;;;;;;;0.00;0.00;;;;;8.88;93.15;100110.94;5037923;28;10115;-68
2023/01/12 05:43:51;;;;;;;;;1.75;0.00;;;;;8.91;93.12;100127.47;5032333;28;10048;-66
2023/01/12 05:46:20;;;;;;;;;0.00;0.00;;;;;8.96;93.01;100110.75;5040736;28;10717;-69
2023/01/12 05:48:48;;;;;;;;;3.50;1.50;;;;;8.97;92.98;100112.41;5022591;28;10051;-68
2023/01/12 05:51:15;;;;;;;;;0.25;0.00;;;;;8.97;93.52;100115.09;5026011;28;10167;-68
2023/01/12 05:53:42;;;;;;;;;0.00;0.00;;;;;9.04;93.48;100107.06;5040803;28;9920;-67
2023/01/12 05:56:18;;;;;;;;;0.00;0.00;;;;;9.11;93.89;100105.22;5035721;28;10020;-68
2023/01/12 05:58:53;;;;;;;;;0.75;0.75;;;;;9.14;93.41;100112.88;5034318;28;9924;-68
2023/01/12 06:01:20;;;;;;;;;1.00;0.50;;;;;9.16;93.95;100113.50;5046733;28;10140;-68
2023/01/12 06:03:49;;;;;;;;;0.75;0.75;;;;;9.21;93.70;100108.34;5024818;28;10086;-69
2023/01/12 06:06:20;;;;;;;;;0.50;0.50;;;;;9.24;93.74;100099.06;5036572;28;10014;-68
2023/01/12 06:08:47;;;;;;;;;0.00;0.00;;;;;9.29;93.85;100105.47;5037857;28;10140;-68
2023/01/12 06:14:00;;;;;;;;;2.00;1.50;;;;;9.36;94.26;100100.13;5032933;28;10364;-63
2023/01/12 06:16:27;;;;;;;;;0.25;0.25;;;;;9.44;94.01;100110.66;5039763;28;10197;-67
2023/01/12 06:18:54;;;;;;;;;1.00;0.00;;;;;9.46;93.84;100094.34;5033572;28;10087;-67
2023/01/12 06:21:21;;;;;;;;;4.00;4.00;;;;;9.46;94.70;100103.22;5036332;28;10098;-68
2023/01/12 06:23:48;;;;;;;;;4.00;2.00;;;;;9.53;94.45;100120.19;5019537;28;10019;-67
2023/01/12 06:26:14;;;;;;;;;2.00;1.50;;;;;9.50;94.09;100114.38;5039402;28;9981;-67
2023/01/12 06:28:41;;;;;;;;;5.00;1.00;;;;;9.57;94.56;100108.00;5032477;28;10237;-68
2023/01/12 06:31:11;;;;;;;;;6.00;2.75;;;;;9.62;94.87;100112.75;5043106;28;10803;-68
2023/01/12 06:33:37;;;;;;;;;2.00;2.00;;;;;9.68;94.66;100101.16;5033239;28;10061;-68
2023/01/12 06:36:05;;;;;;;;;4.50;1.75;;;;;9.79;94.45;100111.28;5038638;28;10043;-68
2023/01/12 06:38:33;;;;;;;;;3.75;3.75;;;;;9.77;94.13;100113.38;5030198;28;9998;-65
2023/01/12 06:41:04;;;;;;;;;5.00;2.00;;;;;9.66;94.65;100122.03;5030734;28;10250;-68
2023/01/12 06:43:31;;;;;;;;;3.50;2.00;;;;;9.75;94.27;100112.75;5034960;28;10021;-68
2023/01/12 06:45:58;;;;;;;;;6.50;4.00;;;;;9.72;94.08;100107.78;5029652;28;9996;-67
2023/01/12 06:48:24;;;;;;;;;7.00;5.50;;;;;9.76;94.12;100100.94;5038346;28;10117;-67
2023/01/12 06:51:01;;;;;;;;;7.00;5.50;;;;;9.80;94.16;100123.72;5034349;28;10369;-68
2023/01/12 06:53:27;;;;;;;;;5.00;4.00;;;;;9.76;94.27;100129.69;5026425;28;10166;-68
2023/01/12 06:55:53;;;;;;;;;5.00;2.75;;;;;9.77;94.48;100110.69;5041187;28;10264;-69
2023/01/12 06:58:20;;;;;;;;;5.00;3.00;;;;;9.79;94.58;100113.97;5039241;28;10104;-68
2023/01/12 07:00:46;;;;;;;;;5.75;2.00;;;;;9.83;93.76;100131.34;5022401;28;10033;-68
2023/01/12 07:03:15;;;;;;;;;8.50;5.00;;;;;9.76;94.43;100127.81;5036838;28;10008;-68
2023/01/12 07:05:41;;;;;;;;;6.25;5.75;;;;;9.82;94.75;100123.50;5037291;28;10126;-69
2023/01/12 07:08:08;;;;;;;;;4.00;1.25;;;;;9.85;94.39;100123.09;5034360;28;10091;-68
2023/01/12 07:10:36;;;;;;;;;3.50;3.00;;;;;9.89;94.37;100119.78;5042728;28;9899;-68
2023/01/12 07:13:02;;;;;;;;;6.00;5.00;;;;;9.94;94.20;100129.09;5037978;28;10104;-67
2023/01/12 07:15:29;;;;;;;;;10.75;5.50;;;;;9.96;94.07;100140.44;5017593;28;10075;-67
2023/01/12 07:17:56;;;;;;;;;8.50;6.00;;;;;9.98;93.60;100117.69;5034319;28;10198;-68
2023/01/12 07:20:23;;;;;;;;;5.75;4.50;;;;;9.96;93.54;100116.25;5027267;28;10053;-68
2023/01/12 07:22:49;;;;;;;;;7.25;5.00;;;;;10.00;94.02;100142.50;5013460;28;9849;-68
2023/01/12 07:25:16;;;;;;;;;5.00;2.50;;;;;10.07;93.26;100140.66;5019834;28;10128;-68
2023/01/12 07:27:53;;;;;;;;;7.50;5.00;;;;;10.04;93.03;100156.38;5028176;28;10031;-68
2023/01/12 07:30:20;;;;;;;;;4.00;3.75;;;;;10.03;92.79;100149.34;5029452;28;10016;-68
2023/01/12 07:32:48;;;;;;;;;8.25;4.00;;;;;10.03;93.10;100143.97;5027026;28;9864;-67
2023/01/12 07:35:15;;;;;;;;;7.00;4.00;;;;;10.02;93.39;100148.53;5030937;28;10073;-64
2023/01/12 07:37:49;;;;;;;;;9.25;4.25;;;;;10.09;93.02;100138.59;5026176;28;10003;-65
2023/01/12 07:40:16;;;;;;;;;6.50;4.00;;;;;10.07;92.80;100158.66;5025062;28;10025;-65
2023/01/12 07:42:43;;;;;;;;;6.00;2.50;;;;;10.11;92.62;100139.19;5018448;28;9938;-68
2023/01/12 07:45:11;;;;;;;;;8.00;2.00;;;;;10.18;91.98;100155.34;5035319;28;9881;-65
2023/01/12 07:47:38;;;;;;;;;4.00;2.75;;;;;10.13;92.05;100152.44;5011107;28;9856;-65
2023/01/12 07:50:05;;;;;;;;;4.75;2.00;;;;;10.16;92.31;100158.22;5013438;28;9893;-66
2023/01/12 07:52:32;;;;;;;;;8.50;2.50;;;;;10.19;92.08;100159.66;5012587;28;10150;-66
2023/01/12 07:54:58;;;;;;;;;11.50;6.00;;;;;10.24;91.83;100167.94;5016700;28;9979;-67
2023/01/12 07:57:25;;;;;;;;;9.25;4.25;;;;;10.24;91.97;100178.69;5018779;28;9967;-66
2023/01/12 07:59:51;;;;;;;;;5.75;1.50;;;;;10.27;91.58;100178.31;5027415;28;9847;-67
2023/01/12 08:02:18;;;;;;;;;3.25;1.25;;;;;10.27;91.53;100172.13;5018666;28;10164;-66
2023/01/12 08:04:45;;;;;;;;;4.00;2.00;;;;;10.28;91.27;100157.63;5018938;28;9926;-69
2023/01/12 08:07:13;;;;;;;;;3.50;3.50;;;;;10.27;91.42;100183.69;5012397;28;9878;-66
2023/01/12 08:09:40;;;;;;;;;3.00;1.75;;;;;10.21;91.65;100175.59;5026472;28;9893;-66
2023/01/12 08:12:06;;;;;;;;;2.50;2.00;;;;;10.31;91.66;100182.25;5021098;28;9955;-68
2023/01/12 08:14:36;;;;;;;;;8.00;5.00;;;;;10.35;90.98;100188.03;5016512;28;9754;-69
2023/01/12 08:17:06;;;;;;;;;2.75;2.00;;;;;10.37;90.82;100191.34;5011113;28;9758;-68
2023/01/12 08:19:41;;;;;;;;;5.25;4.25;;;;;10.35;90.52;100185.34;5013987;28;9822;-67
2023/01/12 08:22:14;;;;;;;;;7.25;5.50;;;;;10.44;90.81;100199.41;5022095;28;9669;-67
2023/01/12 08:24:47;;;;;;;;;4.00;2.75;;;;;10.52;90.19;100194.63;5024881;28;9777;-68
2023/01/12 08:27:15;;;;;;;;;3.00;1.50;;;;;10.49;90.08;100199.59;5014466;28;9897;-69
2023/01/12 08:29:45;;;;;;;;;6.00;2.00;;;;;10.44;89.95;100205.63;5010593;28;9901;-69
2023/01/12 08:32:15;;;;;;;;;2.00;2.00;;;;;10.50;89.43;100206.66;5027774;28;9799;-65
2023/01/12 08:34:44;;;;;;;;;2.50;2.50;;;;;10.42;89.91;100231.91;5028603;28;9745;-66
2023/01/12 08:37:15;;;;;;;;;6.25;2.00;;;;;10.48;89.58;100200.66;5035605;28;9767;-66
2023/01/12 08:39:42;;;;;;;;;3.25;2.75;;;;;10.63;89.30;100220.09;5040685;28;9841;-69
2023/01/12 08:42:08;;;;;;;;;4.00;4.00;;;;;10.58;89.29;100227.97;5044304;28;9816;-66
2023/01/12 08:44:35;;;;;;;;;7.75;4.00;;;;;10.55;88.97;100231.06;5029636;28;9858;-68
2023/01/12 08:47:04;;;;;;;;;5.50;2.00;;;;;10.57;89.15;100231.66;5041680;28;9828;-69
2023/01/12 08:49:31;;;;;;;;;4.00;2.25;;;;;10.57;89.04;100247.81;5027625;28;9668;-69
2023/01/12 08:51:58;;;;;;;;;7.50;1.75;;;;;10.61;88.81;100239.16;5014041;28;9765;-69
2023/01/12 08:54:25;;;;;;;;;4.25;4.00;;;;;10.67;88.73;100218.63;5033146;28;9691;-69
2023/01/12 08:56:53;;;;;;;;;4.75;2.00;;;;;10.65;88.79;100234.16;5033947;28;9605;-68
2023/01/12 08:59:19;;;;;;;;;4.00;3.00;;;;;10.57;88.99;100229.84;5028480;28;10468;-69
2023/01/12 09:01:46;;;;;;;;;3.50;1.75;;;;;10.62;88.72;100240.78;5029136;28;9551;-69
2023/01/12 09:04:13;;;;;;;;;4.00;3.00;;;;;10.63;88.53;100244.31;5020819;28;9619;-67
2023/01/12 09:06:42;;;;;;;;;5.00;1.50;;;;;10.54;89.87;100219.47;5013771;28;9687;-68
2023/01/12 09:09:12;;;;;;;;;5.50;4.50;;;;;10.56;89.30;100235.41;5013883;28;9687;-70
2023/01/12 09:11:40;;;;;;;;;11.25;4.50;;;;;10.51;89.48;100233.34;5014789;28;9708;-67
2023/01/12 09:14:07;;;;;;;;;4.75;1.25;;;;;10.61;89.79;100247.22;5013573;28;9815;-67
2023/01/12 09:16:34;;;;;;;;;6.00;3.00;;;;;10.56;89.64;100248.88;5026268;28;9701;-66
2023/01/12 09:19:01;;;;;;;;;8.00;6.00;;;;;10.62;89.33;100254.25;5028893;28;9709;-66
2023/01/12 09:21:29;;;;;;;;;3.50;2.50;;;;;10.70;88.78;100255.91;5033493;28;9670;-65
2023/01/12 09:23:56;;;;;;;;;5.75;2.00;;;;;10.74;88.39;100275.16;5017193;28;9784;-66
2023/01/12 09:26:30;;;;;;;;;2.50;2.50;;;;;10.62;89.12;100264.19;5013338;28;9690;-67
2023/01/12 09:29:01;;;;;;;;;2.75;2.25;;;;;10.69;88.81;100281.13;5029675;28;9894;-65
2023/01/12 09:31:30;;;;;;;;;4.75;2.00;;;;;10.63;88.99;100276.59;5023894;28;9871;-65
2023/01/12 09:33:56;;;;;;;;;2.75;2.75;;;;;10.68;89.06;100289.44;5029168;28;9612;-66
2023/01/12 09:36:29;;;;;;;;;3.25;2.00;;;;;10.73;88.75;100286.94;5031968;28;10386;-65
2023/01/12 09:38:56;;;;;;;;;4.50;3.00;;;;;10.69;88.96;100301.84;5032462;28;9636;-67
2023/01/12 09:47:17;;;;;;;;;3.00;3.00;;;;;10.82;87.85;100309.94;5013723;28;9703;-64
2023/01/12 09:49:51;;;;;;;;;2.00;2.00;;;;;10.91;87.78;100311.38;5026455;28;9734;-64
2023/01/12 09:52:29;;;;;;;;;6.00;4.00;;;;;10.81;88.08;100310.94;5012307;28;9602;-65
2023/01/12 09:54:55;;;;;;;;;6.25;3.50;;;;;10.85;88.16;100309.50;5020927;28;9773;-65
2023/01/12 09:57:50;;;;;;;;;3.00;3.00;;;;;10.93;87.60;100314.66;5029544;28;9747;-65
2023/01/12 10:00:19;;;;;;;;;7.25;4.75;;;;;10.92;87.64;100320.28;5017255;28;9702;-66
2023/01/12 10:03:09;;;;;;;;;9.75;4.00;;;;;10.89;87.66;100316.94;5031674;28;9756;-64
2023/01/12 10:05:49;;;;;;;;;6.75;5.75;;;;;10.85;87.99;100329.16;5012869;28;9652;-65
2023/01/12 10:08:31;;;;;;;;;7.75;3.00;;;;;10.91;87.84;100322.13;5012719;28;9843;-65
2023/01/12 10:11:24;;;;;;;;;5.00;3.00;;;;;10.88;88.03;100334.16;5012392;28;9586;-66
2023/01/12 10:14:18;;;;;;;;;7.00;2.00;;;;;10.88;88.15;100341.41;5027972;28;10492;-64
2023/01/12 10:17:00;;;;;;;;;2.75;2.00;;;;;10.91;88.26;100338.28;5032140;28;10295;-69
2023/01/12 10:19:31;;;;;;;;;4.25;1.75;;;;;10.83;89.02;100344.72;5012422;28;9552;-70
2023/01/12 10:22:05;;;;;;;;;5.00;4.25;;;;;10.82;89.23;100345.75;5026917;28;9814;-68
2023/01/12 10:24:33;;;;;;;;;3.50;2.00;;;;;10.77;89.21;100332.06;5011727;28;9686;-68
2023/01/12 10:27:02;;;;;;;;;8.25;5.00;;;;;10.75;89.49;100353.00;5012035;28;9606;-66
2023/01/12 10:29:31;;;;;;;;;1.50;1.50;;;;;10.76;89.09;100345.75;5012087;28;9777;-69
2023/01/12 10:31:57;;;;;;;;;3.00;1.00;;;;;10.78;89.27;100349.09;5010907;28;9678;-68
2023/01/12 10:34:24;;;;;;;;;12.00;7.00;;;;;10.73;89.61;100349.69;5031087;28;9691;-67
2023/01/12 10:36:56;;;;;;;;;9.00;6.00;;;;;10.74;89.42;100356.75;5026553;28;9653;-67
2023/01/12 10:39:38;;;;;;;;;7.50;2.25;;;;;10.83;89.10;100350.09;5031452;28;9689;-69
2023/01/12 10:43:17;;;;;;;;;5.25;5.25;;;;;10.80;89.54;100353.19;5030662;28;9716;-66
2023/01/12 10:45:16;;;;;;;;;7.25;6.00;;;;;10.83;89.72;100354.66;5011421;28;9760;-67
2023/01/12 10:47:44;;;;;;;;;6.00;3.00;;;;;10.81;89.84;100360.25;5011947;28;9705;-70
2023/01/12 10:50:30;;;;;;;;;7.75;6.00;;;;;10.82;89.73;100353.03;5013556;28;9742;-67
2023/01/12 10:53:03;;;;;;;;;8.50;2.25;;;;;10.78;89.86;100368.75;5011997;28;9819;-67
2023/01/12 10:55:32;;;;;;;;;5.50;3.50;;;;;10.83;89.63;100374.34;5011233;28;9855;-66
2023/01/12 10:57:59;;;;;;;;;3.00;2.00;;;;;10.92;89.61;100374.94;5019691;28;9376;-67
2023/01/12 11:00:27;;;;;;;;;1.75;1.50;;;;;10.93;89.19;100370.38;5030660;28;9534;-69
2023/01/12 11:02:54;;;;;;;;;6.25;5.25;;;;;10.89;89.50;100378.06;5023410;28;9598;-67
2023/01/12 11:05:37;;;;;;;;;6.00;4.50;;;;;10.86;89.53;100360.47;5020537;28;9822;-69
2023/01/12 11:08:21;;;;;;;;;2.00;2.00;;;;;10.87;89.51;100363.97;5029272;28;9703;-67
2023/01/12 11:10:48;;;;;;;;;4.50;3.50;;;;;10.85;89.45;100356.09;5031046;28;9819;-68
2023/01/12 11:13:29;;;;;;;;;4.00;2.00;;;;;10.89;89.64;100360.03;5035158;28;9625;-70
2023/01/12 11:16:14;;;;;;;;;3.75;2.75;;;;;10.95;89.07;100354.88;5026536;28;9692;-67
2023/01/12 11:18:49;;;;;;;;;2.00;1.50;;;;;10.99;89.18;100350.72;5030253;28;9572;-68
2023/01/12 11:21:21;;;;;;;;;5.75;2.50;;;;;10.98;89.21;100354.44;5030916;28;9577;-68
2023/01/12 11:24:02;;;;;;;;;4.50;3.00;;;;;10.96;89.44;100340.34;5015927;28;9524;-66
2023/01/12 11:26:42;;;;;;;;;3.25;1.75;;;;;10.96;89.15;100343.88;5011160;28;9733;-67
2023/01/12 11:29:37;;;;;;;;;6.75;3.50;;;;;10.92;89.40;100328.34;5028201;28;9621;-68
2023/01/12 11:32:20;;;;;;;;;2.50;1.00;;;;;10.99;89.23;100327.31;5011602;28;10460;-65
2023/01/12 11:35:27;;;;;;;;;2.00;1.00;;;;;11.00;88.82;100328.94;5010589;28;9603;-66
2023/01/12 11:37:59;;;;;;;;;6.50;4.00;;;;;10.91;89.14;100324.84;5018269;28;9570;-66
2023/01/12 11:40:31;;;;;;;;;2.75;1.25;;;;;10.95;88.91;100330.63;5030509;28;9673;-65
2023/01/12 11:43:48;;;;;;;;;7.00;2.00;;;;;11.01;88.76;100321.69;5022179;28;9449;-65
2023/01/12 11:46:41;;;;;;;;;2.50;2.50;;;;;11.04;88.59;100332.88;4964911;28;9713;-66
2023/01/12 11:49:37;;;;;;;;;8.00;2.00;;;;;11.04;88.36;100338.28;5027606;28;9451;-66
2023/01/12 11:52:03;;;;;;;;;4.00;3.50;;;;;10.98;88.48;100311.34;5030230;28;9585;-64
2023/01/12 11:54:30;;;;;;;;;6.00;4.75;;;;;10.89;89.16;100337.66;5030103;28;10241;-65
2023/01/12 11:57:22;;;;;;;;;6.50;4.00;;;;;10.97;89.01;100332.06;5016891;28;9604;-64
2023/01/12 12:00:07;;;;;;;;;2.00;2.00;;;;;11.01;88.99;100319.84;5010610;28;9687;-66
2023/01/12 12:03:18;;;;;;;;;2.25;2.00;;;;;10.99;88.94;100319.22;5011099;28;9653;-66
2023/01/12 12:05:55;;;;;;;;;3.50;3.00;;;;;10.97;88.95;100321.28;4994078;28;10403;-67
2023/01/12 12:08:37;;;;;;;;;5.50;3.25;;;;;10.92;89.22;100314.88;5013270;28;10550;-66
2023/01/12 12:11:29;;;;;;;;;2.00;2.00;;;;;10.96;88.77;100310.72;5029749;28;9772;-65
2023/01/12 12:14:14;;;;;;;;;5.00;2.00;;;;;10.96;88.73;100316.13;5029767;28;9528;-65
2023/01/12 12:16:53;;;;;;;;;5.00;2.00;;;;;11.04;88.49;100316.72;5030285;28;9555;-66
2023/01/12 12:19:37;;;;;;;;;1.50;1.00;;;;;11.03;88.23;100301.63;5010866;28;9562;-65
2023/01/12 12:22:32;;;;;;;;;2.00;1.00;;;;;11.02;88.38;100308.03;5011045;28;9504;-66